Time;durP1;ratioP1;P1;durP2;ratioP2;P2;SDS_P1;SDS_P2;PMS_P1;PMS_P2;Temp;Humidity;BMP_temperature;BMP_pressure;BME280_temperature;BME280_humidity;BME280_pressure;Samples;Min_cycle;Max_cycle;Signal;HPM_P1;HPM_P2
2022/11/10 00:00:36;;;;;;;2.53;1.93;;;13.70;99.90;;;;;;5015663;28;20434;-73
2022/11/10 00:03:23;;;;;;;3.77;2.00;;;13.70;99.90;;;;;;5033110;28;20454;-72
2022/11/10 00:06:17;;;;;;;6.37;2.20;;;13.70;99.90;;;;;;5032582;28;20864;-72
2022/11/10 00:09:02;;;;;;;6.93;2.10;;;13.70;99.90;;;;;;5033080;28;20448;-73
2022/11/10 00:11:46;;;;;;;7.10;2.50;;;13.70;99.90;;;;;;5015580;28;20478;-72
2022/11/10 00:17:37;;;;;;;4.13;1.90;;;13.70;99.90;;;;;;5032970;28;20803;-73
2022/11/10 00:20:22;;;;;;;6.07;2.00;;;13.60;99.90;;;;;;5015221;28;20475;-73
2022/11/10 00:23:08;;;;;;;2.50;1.53;;;13.60;99.90;;;;;;5001833;28;20812;-72
2022/11/10 00:25:53;;;;;;;6.43;2.43;;;13.60;99.90;;;;;;5018187;28;20404;-73
2022/11/10 00:28:37;;;;;;;5.20;2.00;;;13.60;99.90;;;;;;5069595;23;20599;-72
2022/11/10 00:31:21;;;;;;;3.97;2.40;;;13.60;99.90;;;;;;5001490;28;20412;-71
2022/11/10 00:34:10;;;;;;;3.13;2.00;;;13.70;99.90;;;;;;4974956;28;20471;-72
2022/11/10 00:36:54;;;;;;;6.97;2.43;;;13.60;99.90;;;;;;4982067;28;20431;-72
2022/11/10 00:39:39;;;;;;;3.60;1.77;;;13.60;99.90;;;;;;4977758;28;20474;-72
2022/11/10 00:42:27;;;;;;;1.87;1.40;;;13.60;99.90;;;;;;4988672;28;20819;-72
2022/11/10 00:45:12;;;;;;;4.20;1.93;;;13.60;99.90;;;;;;4995025;28;20961;-71
2022/11/10 00:47:56;;;;;;;6.57;1.90;;;13.60;99.90;;;;;;4974843;28;20412;-71
2022/11/10 00:50:41;;;;;;;4.73;1.63;;;13.60;99.90;;;;;;4982947;28;20470;-72
2022/11/10 00:53:25;;;;;;;4.43;2.10;;;13.60;99.90;;;;;;4982649;28;20777;-70
2022/11/10 00:56:12;;;;;;;3.63;1.43;;;13.60;99.90;;;;;;4974673;28;20462;-72
2022/11/10 00:58:56;;;;;;;5.07;1.70;;;13.60;99.90;;;;;;4994842;28;20957;-71
2022/11/10 01:01:41;;;;;;;3.67;1.90;;;13.50;99.90;;;;;;4991975;28;20446;-72
2022/11/10 01:04:26;;;;;;;7.40;2.30;;;13.50;99.90;;;;;;5005138;28;20449;-72
2022/11/10 01:07:13;;;;;;;5.03;1.70;;;13.50;99.90;;;;;;4994791;28;20447;-72
2022/11/10 01:09:57;;;;;;;5.20;1.93;;;13.50;99.90;;;;;;4992462;28;20546;-71
2022/11/10 01:12:42;;;;;;;4.73;1.50;;;13.50;99.90;;;;;;4972862;28;20445;-71
2022/11/10 01:15:27;;;;;;;6.43;1.93;;;13.50;99.90;;;;;;5004714;28;20864;-72
2022/11/10 01:18:11;;;;;;;2.87;1.60;;;13.50;99.90;;;;;;4974429;28;20469;-72
2022/11/10 01:20:55;;;;;;;3.90;2.07;;;13.50;99.90;;;;;;4977196;28;20438;-72
2022/11/10 01:23:40;;;;;;;3.00;1.80;;;13.50;99.90;;;;;;4977457;28;20534;-72
2022/11/10 01:26:25;;;;;;;2.67;1.70;;;13.50;99.90;;;;;;4995719;28;20423;-72
2022/11/10 01:29:09;;;;;;;3.53;1.93;;;13.50;99.90;;;;;;4994783;28;20838;-71
2022/11/10 01:31:54;;;;;;;3.40;1.70;;;13.50;99.90;;;;;;4995549;28;20536;-72
2022/11/10 01:34:38;;;;;;;3.73;1.80;;;13.50;99.90;;;;;;4998342;28;20430;-71
2022/11/10 01:37:26;;;;;;;4.20;1.60;;;13.50;99.90;;;;;;4996257;28;20517;-72
2022/11/10 01:40:15;;;;;;;4.43;1.70;;;13.40;99.90;;;;;;4975584;28;20490;-72
2022/11/10 01:43:00;;;;;;;4.00;2.23;;;13.50;99.90;;;;;;4992869;28;20489;-71
2022/11/10 01:45:47;;;;;;;3.83;1.50;;;13.40;99.90;;;;;;4980259;28;20463;-71
2022/11/10 01:48:34;;;;;;;6.20;2.30;;;13.40;99.90;;;;;;5013867;28;20449;-71
2022/11/10 01:51:21;;;;;;;3.33;2.03;;;13.40;99.90;;;;;;4983907;28;20432;-72
2022/11/10 01:54:12;;;;;;;2.40;1.77;;;13.40;99.90;;;;;;4974816;28;20423;-71
2022/11/10 01:57:04;;;;;;;7.00;2.03;;;13.40;99.90;;;;;;4975210;28;20437;-72
2022/11/10 01:59:49;;;;;;;4.93;1.77;;;13.40;99.90;;;;;;4996868;28;20839;-71
2022/11/10 02:03:02;;;;;;;3.47;1.73;;;13.40;99.90;;;;;;4991883;28;20789;-71
2022/11/10 02:05:49;;;;;;;5.80;1.70;;;13.40;99.90;;;;;;4983620;28;20488;-72
2022/11/10 02:08:34;;;;;;;7.20;1.70;;;13.40;99.90;;;;;;4976545;28;20456;-71
2022/11/10 02:11:22;;;;;;;5.57;2.00;;;13.40;99.90;;;;;;4981821;28;20446;-72
2022/11/10 02:14:07;;;;;;;4.63;1.90;;;13.30;99.90;;;;;;4985198;28;20433;-72
2022/11/10 02:16:55;;;;;;;5.00;2.00;;;13.30;99.90;;;;;;5013307;28;20399;-71
2022/11/10 02:19:40;;;;;;;6.10;2.20;;;13.30;99.90;;;;;;4982939;28;20443;-72
2022/11/10 02:22:28;;;;;;;6.13;1.77;;;13.30;99.90;;;;;;4975749;28;20427;-72
2022/11/10 02:25:22;;;;;;;3.80;1.80;;;13.30;99.90;;;;;;4993086;28;20550;-71
2022/11/10 02:28:07;;;;;;;5.53;2.20;;;13.30;99.90;;;;;;4975515;28;20489;-72
2022/11/10 02:30:54;;;;;;;4.20;1.87;;;13.30;99.90;;;;;;4989652;28;20502;-72
2022/11/10 02:33:39;;;;;;;3.03;2.20;;;13.30;99.90;;;;;;4996756;28;20461;-72
2022/11/10 02:36:26;;;;;;;5.70;1.80;;;13.30;99.90;;;;;;4992989;28;20430;-71
2022/11/10 02:39:11;;;;;;;3.70;1.67;;;13.30;99.90;;;;;;5008149;28;20446;-72
2022/11/10 02:41:56;;;;;;;3.80;1.50;;;13.30;99.90;;;;;;4959253;28;20410;-71
2022/11/10 02:44:41;;;;;;;4.90;1.93;;;13.30;99.90;;;;;;5012366;28;20531;-72
2022/11/10 02:47:25;;;;;;;5.43;1.60;;;13.30;99.90;;;;;;4989094;28;20438;-72
2022/11/10 02:50:12;;;;;;;4.43;1.63;;;13.30;99.90;;;;;;4999371;28;21029;-72
2022/11/10 02:52:56;;;;;;;4.40;1.50;;;13.30;99.90;;;;;;4994956;28;20436;-71
2022/11/10 02:55:41;;;;;;;3.97;1.87;;;13.20;99.90;;;;;;5010486;28;20426;-72
2022/11/10 02:58:25;;;;;;;5.63;1.60;;;13.20;99.90;;;;;;5010372;28;20526;-71
2022/11/10 03:01:10;;;;;;;5.07;1.57;;;13.20;99.90;;;;;;4986771;28;20429;-72
2022/11/10 03:03:55;;;;;;;5.27;1.83;;;13.20;99.90;;;;;;5006582;28;20487;-71
2022/11/10 03:06:39;;;;;;;2.77;1.93;;;13.20;99.90;;;;;;4999452;28;20430;-71
2022/11/10 03:09:24;;;;;;;1.70;1.60;;;13.20;99.90;;;;;;4988868;28;20496;-72
2022/11/10 03:12:11;;;;;;;4.70;2.03;;;13.20;99.90;;;;;;4987113;28;20428;-72
2022/11/10 03:14:58;;;;;;;3.13;1.50;;;13.20;99.90;;;;;;4992982;28;20597;-71
2022/11/10 03:17:42;;;;;;;3.80;1.60;;;13.20;99.90;;;;;;4996043;28;20901;-71
2022/11/10 03:20:27;;;;;;;3.27;1.67;;;13.20;99.90;;;;;;4986658;28;20509;-72
2022/11/10 03:23:13;;;;;;;2.90;1.77;;;13.20;99.90;;;;;;4972537;28;20637;-72
2022/11/10 03:25:58;;;;;;;6.10;1.90;;;13.20;99.90;;;;;;4977752;28;20749;-71
2022/11/10 03:28:44;;;;;;;3.70;1.57;;;13.20;99.90;;;;;;4989433;28;20470;-72
2022/11/10 03:31:30;;;;;;;8.60;1.93;;;13.20;99.90;;;;;;4972008;28;20440;-72
2022/11/10 03:34:14;;;;;;;5.40;1.80;;;13.20;99.90;;;;;;5005530;28;20460;-72
2022/11/10 03:37:01;;;;;;;10.33;1.87;;;13.20;99.90;;;;;;4965313;28;20519;-72
2022/11/10 03:39:46;;;;;;;3.10;1.47;;;13.10;99.90;;;;;;4978060;28;20975;-71
2022/11/10 03:43:03;;;;;;;5.53;1.90;;;13.10;99.90;;;;;;4918918;29;20462;-72
2022/11/10 03:45:50;;;;;;;3.33;1.33;;;13.10;99.90;;;;;;4951895;28;20787;-71
2022/11/10 03:48:34;;;;;;;7.03;2.30;;;13.10;99.90;;;;;;4969363;28;20458;-71
2022/11/10 03:51:21;;;;;;;6.20;1.60;;;13.10;99.90;;;;;;4992625;28;20852;-72
2022/11/10 03:54:10;;;;;;;5.03;1.60;;;13.10;99.90;;;;;;4995699;28;20469;-72
2022/11/10 03:56:57;;;;;;;7.37;1.87;;;13.10;99.90;;;;;;4991966;28;20450;-72
2022/11/10 03:59:44;;;;;;;5.27;1.73;;;13.10;99.90;;;;;;4965303;28;20546;-71
2022/11/10 04:02:32;;;;;;;6.13;2.07;;;13.10;99.90;;;;;;4996369;28;20472;-71
2022/11/10 04:17:49;;;;;;;5.30;2.13;;;13.10;99.90;;;;;;4991971;28;20443;-71
2022/11/10 04:20:34;;;;;;;5.77;1.60;;;13.10;99.90;;;;;;4976649;28;20471;-71
2022/11/10 04:23:25;;;;;;;3.47;1.50;;;13.10;99.90;;;;;;4996948;28;20533;-72
2022/11/10 04:26:32;;;;;;;3.93;1.60;;;13.00;99.90;;;;;;4992869;28;20444;-72
2022/11/10 04:29:19;;;;;;;7.00;1.90;;;13.00;99.90;;;;;;4999230;28;20497;-72
2022/11/10 04:32:03;;;;;;;5.23;1.63;;;13.00;99.90;;;;;;4993995;28;20429;-72
2022/11/10 04:34:48;;;;;;;2.97;1.50;;;13.00;99.90;;;;;;4990449;28;20444;-72
2022/11/10 04:37:32;;;;;;;3.63;1.73;;;13.00;99.90;;;;;;4941864;28;20436;-71
2022/11/10 04:40:17;;;;;;;4.53;1.90;;;13.00;99.90;;;;;;4998711;28;21023;-72
2022/11/10 04:43:04;;;;;;;7.70;2.23;;;13.00;99.90;;;;;;4992058;28;20824;-71
2022/11/10 04:45:48;;;;;;;3.10;1.73;;;13.00;99.90;;;;;;5011312;28;20487;-72
2022/11/10 04:48:38;;;;;;;10.70;1.87;;;13.00;99.90;;;;;;4992066;28;21029;-72
2022/11/10 04:51:29;;;;;;;3.60;1.80;;;13.00;99.90;;;;;;4989954;28;20467;-71
2022/11/10 04:54:16;;;;;;;4.27;1.93;;;13.00;99.90;;;;;;4991921;28;20781;-71
2022/11/10 04:57:01;;;;;;;5.50;1.73;;;13.00;99.90;;;;;;4955353;28;20939;-71
2022/11/10 04:59:45;;;;;;;4.23;1.97;;;13.00;99.90;;;;;;4979844;28;20439;-71
2022/11/10 05:02:29;;;;;;;8.87;2.67;;;13.00;99.90;;;;;;5011033;28;20439;-72
2022/11/10 05:05:14;;;;;;;6.53;2.00;;;13.00;99.90;;;;;;4979283;28;20482;-71
2022/11/10 05:07:59;;;;;;;5.40;1.70;;;13.00;99.90;;;;;;4974340;28;20450;-72
2022/11/10 05:10:44;;;;;;;6.60;2.17;;;13.00;99.90;;;;;;4977009;28;20550;-71
2022/11/10 05:13:29;;;;;;;5.77;2.00;;;13.00;99.90;;;;;;4990941;28;21011;-72
2022/11/10 05:16:18;;;;;;;7.27;3.37;;;12.90;99.90;;;;;;5005937;28;20786;-72
2022/11/10 05:19:05;;;;;;;2.97;1.60;;;12.90;99.90;;;;;;4997125;28;20788;-72
2022/11/10 05:21:58;;;;;;;3.50;1.70;;;12.90;99.90;;;;;;5004561;28;20529;-72
2022/11/10 05:24:42;;;;;;;6.30;1.70;;;12.90;99.90;;;;;;4970399;28;20466;-71
2022/11/10 05:27:28;;;;;;;3.90;1.50;;;12.90;99.90;;;;;;4969984;28;20515;-72
2022/11/10 05:30:13;;;;;;;7.57;2.10;;;12.90;99.90;;;;;;5013043;28;20444;-71
2022/11/10 05:32:58;;;;;;;4.83;1.90;;;12.90;99.90;;;;;;4992862;28;20426;-71
2022/11/10 05:35:43;;;;;;;8.53;2.20;;;12.90;99.90;;;;;;5008238;28;20416;-72
2022/11/10 05:38:27;;;;;;;6.40;1.93;;;12.90;99.90;;;;;;4981868;28;20412;-73
2022/11/10 05:41:12;;;;;;;6.70;2.13;;;12.90;99.90;;;;;;4980672;28;20419;-73
2022/11/10 05:43:57;;;;;;;2.10;1.60;;;12.90;99.90;;;;;;5014057;28;20466;-73
2022/11/10 05:46:41;;;;;;;5.13;1.80;;;12.90;99.90;;;;;;4986739;28;20415;-73
2022/11/10 05:49:26;;;;;;;3.43;1.93;;;12.90;99.90;;;;;;4987433;28;20453;-73
2022/11/10 05:52:10;;;;;;;5.20;3.20;;;12.90;99.90;;;;;;5002485;28;20439;-73
2022/11/10 05:54:55;;;;;;;4.50;2.03;;;12.90;99.90;;;;;;4979702;28;20444;-73
2022/11/10 05:57:50;;;;;;;4.50;1.70;;;12.90;99.90;;;;;;4990273;28;20442;-73
2022/11/10 06:00:37;;;;;;;4.13;1.83;;;12.90;99.90;;;;;;4960271;28;20461;-73
2022/11/10 06:03:22;;;;;;;5.73;1.83;;;12.90;99.90;;;;;;4963077;28;20432;-73
2022/11/10 06:06:08;;;;;;;9.00;2.13;;;12.80;99.90;;;;;;4984186;28;20958;-73
2022/11/10 06:08:55;;;;;;;2.30;1.63;;;12.80;99.90;;;;;;5005159;28;20451;-73
2022/11/10 06:11:40;;;;;;;4.40;1.60;;;12.80;99.90;;;;;;4983270;28;20915;-73
2022/11/10 06:14:26;;;;;;;4.37;2.00;;;12.80;99.90;;;;;;4993943;28;20420;-73
2022/11/10 06:17:40;;;;;;;2.97;2.17;;;12.80;99.90;;;;;;4981096;28;20442;-72
2022/11/10 06:20:25;;;;;;;4.07;1.87;;;12.80;99.90;;;;;;4989238;28;20443;-73
2022/11/10 06:23:17;;;;;;;4.33;2.37;;;12.80;99.90;;;;;;4987679;28;20925;-73
2022/11/10 06:26:04;;;;;;;4.60;1.43;;;12.80;99.90;;;;;;4991530;28;20948;-72
2022/11/10 06:28:48;;;;;;;5.10;1.90;;;12.80;99.90;;;;;;4992867;28;20461;-73
2022/11/10 06:31:33;;;;;;;5.90;1.50;;;12.80;99.90;;;;;;4983654;28;20459;-72
2022/11/10 06:34:17;;;;;;;3.30;1.70;;;12.80;99.90;;;;;;5013381;28;20402;-69
2022/11/10 06:37:05;;;;;;;3.80;1.43;;;12.80;99.90;;;;;;4993746;28;20505;-73
2022/11/10 06:39:49;;;;;;;4.10;2.10;;;12.80;99.90;;;;;;4997125;28;20451;-73
2022/11/10 06:42:34;;;;;;;6.10;1.77;;;12.80;99.90;;;;;;4977513;28;20436;-73
2022/11/10 06:45:19;;;;;;;4.30;1.93;;;12.80;99.90;;;;;;4993843;28;20458;-74
2022/11/10 06:48:10;;;;;;;7.13;1.63;;;12.80;99.90;;;;;;4999380;28;20483;-72
2022/11/10 06:51:02;;;;;;;4.47;2.07;;;12.80;99.90;;;;;;4981143;28;20474;-73
2022/11/10 06:53:49;;;;;;;9.13;1.97;;;12.80;99.90;;;;;;4973915;28;20979;-73
2022/11/10 06:56:34;;;;;;;4.03;1.90;;;12.70;99.90;;;;;;4982768;28;20535;-72
2022/11/10 06:59:19;;;;;;;3.93;1.63;;;12.70;99.90;;;;;;5008681;28;20849;-73
2022/11/10 07:02:04;;;;;;;5.47;1.53;;;12.70;99.90;;;;;;4984173;28;20453;-73
2022/11/10 07:04:49;;;;;;;4.80;1.80;;;12.70;99.90;;;;;;4979306;28;20472;-72
2022/11/10 07:07:36;;;;;;;2.80;1.70;;;12.70;99.90;;;;;;4993836;28;20429;-72
2022/11/10 07:10:21;;;;;;;7.20;2.10;;;12.70;99.90;;;;;;4999810;28;20510;-73
2022/11/10 07:13:05;;;;;;;6.07;1.73;;;12.70;99.90;;;;;;4990028;28;20435;-73
2022/11/10 07:15:51;;;;;;;1.87;1.30;;;12.70;99.90;;;;;;4972463;28;20421;-72
2022/11/10 07:18:38;;;;;;;7.93;2.50;;;12.70;99.90;;;;;;4993510;28;20456;-72
2022/11/10 07:21:23;;;;;;;4.80;2.03;;;12.70;99.90;;;;;;5003296;28;20455;-73
2022/11/10 07:24:07;;;;;;;4.87;2.00;;;12.70;99.90;;;;;;4987548;28;20459;-73
2022/11/10 07:26:52;;;;;;;4.60;2.13;;;12.70;99.90;;;;;;5007258;28;20444;-72
2022/11/10 07:29:37;;;;;;;3.33;1.40;;;12.70;99.90;;;;;;5010036;28;20809;-71
2022/11/10 07:32:21;;;;;;;6.40;2.00;;;12.70;99.90;;;;;;4975463;28;20436;-73
2022/11/10 07:35:10;;;;;;;7.43;2.00;;;12.70;99.90;;;;;;4980825;28;20449;-72
2022/11/10 07:38:03;;;;;;;2.47;1.50;;;12.70;99.90;;;;;;4989486;28;20452;-72
2022/11/10 07:40:55;;;;;;;3.43;2.10;;;12.70;99.90;;;;;;4961585;28;20451;-72
2022/11/10 07:43:39;;;;;;;3.23;1.20;;;12.60;99.90;;;;;;4981965;28;20989;-72
2022/11/10 07:46:45;;;;;;;5.10;1.77;;;12.60;99.90;;;;;;4976328;28;21031;-72
2022/11/10 07:49:29;;;;;;;5.97;2.30;;;12.60;99.90;;;;;;4975017;28;20447;-73
2022/11/10 07:52:14;;;;;;;7.33;1.70;;;12.60;99.90;;;;;;4982005;28;20936;-72
2022/11/10 07:54:59;;;;;;;8.00;1.67;;;12.60;99.90;;;;;;4995421;28;20448;-72
2022/11/10 07:57:43;;;;;;;4.80;1.80;;;12.60;99.90;;;;;;5002000;28;20478;-72
2022/11/10 08:00:32;;;;;;;6.17;1.73;;;12.60;99.90;;;;;;4994383;28;20496;-72
2022/11/10 08:03:19;;;;;;;3.97;1.83;;;12.60;99.90;;;;;;4994522;28;20430;-72
2022/11/10 08:06:04;;;;;;;10.60;2.00;;;12.60;99.90;;;;;;4999359;28;20463;-72
2022/11/10 08:08:49;;;;;;;7.77;1.77;;;12.70;99.90;;;;;;4961404;28;20442;-72
2022/11/10 08:11:36;;;;;;;4.60;1.73;;;12.60;99.90;;;;;;4973862;28;20450;-72
2022/11/10 08:14:22;;;;;;;5.77;2.17;;;12.60;99.90;;;;;;4976117;28;20429;-72
2022/11/10 08:17:08;;;;;;;3.70;1.97;;;12.60;99.90;;;;;;4960187;28;20423;-72
2022/11/10 08:19:53;;;;;;;6.00;1.77;;;12.70;99.90;;;;;;4982824;28;20453;-72
2022/11/10 08:22:38;;;;;;;5.27;1.97;;;12.60;99.90;;;;;;5011493;28;20937;-72
2022/11/10 08:25:23;;;;;;;2.83;1.87;;;12.60;99.90;;;;;;4993562;28;20453;-73
2022/11/10 08:28:13;;;;;;;4.80;1.60;;;12.60;99.90;;;;;;4974745;28;20792;-73
2022/11/10 08:31:01;;;;;;;8.57;2.53;;;12.60;99.90;;;;;;4993142;28;20421;-73
2022/11/10 08:33:46;;;;;;;4.37;2.00;;;12.60;99.90;;;;;;4978301;28;20471;-73
2022/11/10 08:36:36;;;;;;;5.90;2.43;;;12.60;99.90;;;;;;4976003;28;20566;-72
2022/11/10 08:39:39;;;;;;;4.63;2.03;;;12.60;99.90;;;;;;4934328;29;20492;-72
2022/11/10 08:42:24;;;;;;;7.73;1.90;;;12.60;99.90;;;;;;4936963;29;20484;-72
2022/11/10 08:45:09;;;;;;;3.23;1.40;;;12.60;99.90;;;;;;4936817;29;20497;-73
2022/11/10 08:48:02;;;;;;;2.27;1.70;;;12.60;99.90;;;;;;4946373;28;20437;-72
2022/11/10 08:50:51;;;;;;;4.63;2.00;;;12.60;99.90;;;;;;4951700;29;20427;-72
2022/11/10 08:53:35;;;;;;;6.40;2.10;;;12.60;99.90;;;;;;4928022;29;20935;-72
2022/11/10 08:56:22;;;;;;;9.60;2.40;;;12.60;99.90;;;;;;4949909;29;20458;-72
2022/11/10 08:59:07;;;;;;;7.60;3.10;;;12.60;99.90;;;;;;4955743;28;20962;-72
2022/11/10 09:01:56;;;;;;;5.60;2.37;;;12.60;99.90;;;;;;4956504;28;20457;-72
2022/11/10 09:04:43;;;;;;;5.40;2.30;;;12.60;99.90;;;;;;4953330;29;20500;-72
2022/11/10 09:07:31;;;;;;;5.23;1.90;;;12.60;99.90;;;;;;4937662;28;20453;-72
2022/11/10 09:10:16;;;;;;;6.30;1.73;;;12.70;99.90;;;;;;4942603;29;20546;-72
2022/11/10 09:13:04;;;;;;;2.73;1.80;;;12.70;99.90;;;;;;4954427;28;20403;-72
2022/11/10 09:15:51;;;;;;;8.23;2.30;;;12.70;99.90;;;;;;4931887;29;20440;-72
2022/11/10 09:18:36;;;;;;;6.33;2.13;;;12.80;99.90;;;;;;4955130;28;20963;-72
2022/11/10 09:21:23;;;;;;;4.30;2.10;;;12.80;99.90;;;;;;4935624;29;20447;-72
2022/11/10 09:24:08;;;;;;;4.43;2.07;;;12.80;99.90;;;;;;4930972;29;20454;-72
2022/11/10 09:26:53;;;;;;;4.43;1.80;;;12.80;99.90;;;;;;4938500;29;20991;-72
2022/11/10 09:29:37;;;;;;;7.20;1.93;;;12.80;99.90;;;;;;4952361;29;20456;-72
2022/11/10 09:32:21;;;;;;;5.13;1.83;;;12.80;99.90;;;;;;4954000;29;20575;-72
2022/11/10 09:35:06;;;;;;;3.70;1.77;;;12.80;99.90;;;;;;4950496;28;20417;-73
2022/11/10 09:37:51;;;;;;;8.53;2.40;;;12.80;99.90;;;;;;4969446;28;20525;-72
2022/11/10 09:41:03;;;;;;;6.67;1.90;;;12.80;99.90;;;;;;4967409;28;20461;-72
2022/11/10 09:44:00;;;;;;;12.93;2.13;;;12.80;99.90;;;;;;4955507;28;20791;-72
2022/11/10 09:46:59;;;;;;;5.40;1.83;;;12.90;99.90;;;;;;4962530;28;20459;-72
2022/11/10 09:49:50;;;;;;;6.73;2.20;;;12.80;99.90;;;;;;4964970;28;20459;-72
2022/11/10 09:52:39;;;;;;;5.57;2.30;;;12.90;99.90;;;;;;4954047;28;20812;-71
2022/11/10 09:55:35;;;;;;;8.50;2.53;;;12.90;99.90;;;;;;4947654;28;20967;-71
2022/11/10 09:58:25;;;;;;;8.80;2.30;;;12.90;99.90;;;;;;4955444;28;20464;-71
2022/11/10 10:01:27;;;;;;;13.43;2.37;;;12.90;99.90;;;;;;4954287;28;20445;-71
2022/11/10 10:04:47;;;;;;;6.27;2.10;;;12.90;99.90;;;;;;4959293;28;20539;-71
2022/11/10 10:07:43;;;;;;;4.73;2.00;;;12.90;99.90;;;;;;4955466;28;20905;-71
2022/11/10 10:10:43;;;;;;;6.33;1.97;;;12.90;99.90;;;;;;4958131;28;21034;-71
2022/11/10 10:13:55;;;;;;;4.03;1.87;;;12.90;99.90;;;;;;4950971;28;20518;-71
2022/11/10 10:17:06;;;;;;;8.47;2.60;;;12.90;99.90;;;;;;4968139;28;20544;-71
2022/11/10 10:20:18;;;;;;;8.17;2.67;;;13.00;99.90;;;;;;4963678;28;21180;-71
2022/11/10 10:23:13;;;;;;;7.67;2.17;;;12.90;99.90;;;;;;4971820;28;20470;-71
2022/11/10 10:25:58;;;;;;;14.70;2.97;;;13.00;99.90;;;;;;4955296;28;20437;-71
2022/11/10 10:28:47;;;;;;;4.27;2.20;;;13.00;99.90;;;;;;4959277;28;20454;-71
2022/11/10 10:31:38;;;;;;;3.40;1.80;;;13.00;99.90;;;;;;4955193;28;20789;-71
2022/11/10 10:34:27;;;;;;;4.97;2.20;;;13.00;99.90;;;;;;4961809;28;21006;-71
2022/11/10 10:37:22;;;;;;;12.10;2.20;;;13.00;99.90;;;;;;4973211;28;20440;-71
2022/11/10 10:40:16;;;;;;;8.60;2.13;;;13.00;99.90;;;;;;4955125;28;21042;-71
2022/11/10 10:43:00;;;;;;;8.40;2.90;;;13.00;99.90;;;;;;4974420;28;20537;-71
2022/11/10 10:46:14;;;;;;;8.67;1.80;;;13.00;99.90;;;;;;4969625;28;20433;-71
2022/11/10 10:49:35;;;;;;;7.87;2.93;;;13.10;99.90;;;;;;4954084;28;20441;-71
2022/11/10 10:52:23;;;;;;;8.17;2.63;;;13.10;99.90;;;;;;4989918;28;21032;-71
2022/11/10 10:55:14;;;;;;;6.73;2.17;;;13.10;99.90;;;;;;4983888;28;20436;-71
2022/11/10 10:58:06;;;;;;;6.33;2.53;;;13.10;99.90;;;;;;4953586;28;20880;-71
2022/11/10 11:00:55;;;;;;;7.07;1.70;;;13.10;99.90;;;;;;4950851;28;20468;-71
2022/11/10 11:03:44;;;;;;;5.47;2.03;;;13.10;99.90;;;;;;4973812;28;20449;-71
2022/11/10 11:06:36;;;;;;;10.07;1.80;;;13.10;99.90;;;;;;4973440;28;20686;-71
2022/11/10 11:09:28;;;;;;;7.37;2.70;;;13.10;99.90;;;;;;4972625;28;20842;-71
2022/11/10 11:12:19;;;;;;;5.93;2.00;;;13.10;99.90;;;;;;4971971;28;20514;-71
2022/11/10 11:15:30;;;;;;;7.23;2.47;;;13.20;99.90;;;;;;4974232;28;20422;-71
2022/11/10 11:18:17;;;;;;;6.00;2.20;;;13.20;99.90;;;;;;4958962;28;20487;-72
2022/11/10 11:21:08;;;;;;;7.13;1.90;;;13.20;99.90;;;;;;4973851;28;20450;-71
2022/11/10 11:24:00;;;;;;;8.23;2.27;;;13.20;99.90;;;;;;4942805;28;20469;-71
2022/11/10 11:26:52;;;;;;;6.83;1.80;;;13.20;99.90;;;;;;4972412;28;20415;-71
2022/11/10 11:29:51;;;;;;;9.30;2.10;;;13.20;99.90;;;;;;4975358;28;21268;-71
2022/11/10 11:32:48;;;;;;;9.83;2.57;;;13.20;99.90;;;;;;4961685;28;20799;-71
2022/11/10 11:35:38;;;;;;;6.93;1.90;;;13.30;99.90;;;;;;4955718;28;20424;-70
2022/11/10 11:38:50;;;;;;;5.40;1.90;;;13.30;99.90;;;;;;4957936;28;20445;-71
2022/11/10 11:41:46;;;;;;;5.80;1.83;;;13.30;99.90;;;;;;4947287;28;20451;-72
2022/11/10 11:44:46;;;;;;;8.80;1.97;;;13.30;99.90;;;;;;4955179;28;20552;-71
2022/11/10 11:47:39;;;;;;;6.87;2.40;;;13.30;99.90;;;;;;4974556;28;20448;-71
2022/11/10 11:50:27;;;;;;;4.90;2.10;;;13.30;99.90;;;;;;4966807;28;20475;-71
2022/11/10 11:53:14;;;;;;;5.00;1.80;;;13.30;99.90;;;;;;4965635;28;20490;-72
2022/11/10 11:56:21;;;;;;;7.90;2.10;;;13.30;99.90;;;;;;4981186;28;21018;-70
2022/11/10 11:59:25;;;;;;;5.90;2.10;;;13.40;99.90;;;;;;4976481;28;20492;-70
2022/11/10 12:02:45;;;;;;;6.37;1.80;;;13.40;99.90;;;;;;4939508;28;20532;-71
2022/11/10 12:05:57;;;;;;;9.13;1.70;;;13.40;99.90;;;;;;4973519;28;20984;-70
2022/11/10 12:09:10;;;;;;;6.80;2.43;;;13.40;99.90;;;;;;4962571;28;20455;-70
2022/11/10 12:12:19;;;;;;;4.77;1.97;;;13.40;99.90;;;;;;4990249;28;20451;-70
2022/11/10 12:15:23;;;;;;;7.00;2.20;;;13.40;99.90;;;;;;4979909;28;20448;-71
2022/11/10 12:18:35;;;;;;;3.10;1.53;;;13.40;99.90;;;;;;4973148;28;20449;-71
2022/11/10 12:21:24;;;;;;;4.53;1.80;;;13.40;99.90;;;;;;4957206;28;20477;-70
2022/11/10 12:24:51;;;;;;;7.20;1.77;;;13.40;99.90;;;;;;4962957;28;20459;-70
2022/11/10 12:27:48;;;;;;;5.77;2.10;;;13.40;99.90;;;;;;4957848;28;20418;-71
2022/11/10 12:30:35;;;;;;;4.93;1.80;;;13.40;99.90;;;;;;4973435;28;20552;-71
2022/11/10 12:33:28;;;;;;;5.67;1.70;;;13.50;99.90;;;;;;4962655;28;20417;-71
2022/11/10 12:36:20;;;;;;;10.13;1.80;;;13.50;99.90;;;;;;4977310;28;20445;-70
2022/11/10 12:39:14;;;;;;;5.80;2.30;;;13.50;99.90;;;;;;4979947;28;20493;-71
2022/11/10 12:42:01;;;;;;;6.93;2.03;;;13.50;99.90;;;;;;4978526;28;20861;-71
2022/11/10 12:44:58;;;;;;;4.80;1.70;;;13.50;99.90;;;;;;4980431;28;20459;-71
2022/11/10 12:47:47;;;;;;;4.13;1.80;;;13.50;99.90;;;;;;4960679;28;20446;-71
2022/11/10 12:50:39;;;;;;;3.67;1.37;;;13.50;99.90;;;;;;4961240;28;20456;-71
2022/11/10 12:53:31;;;;;;;2.50;1.60;;;13.50;99.90;;;;;;4963328;28;20445;-70
2022/11/10 12:56:50;;;;;;;4.73;1.40;;;13.60;99.90;;;;;;4981461;28;20792;-70
2022/11/10 12:59:39;;;;;;;8.20;2.03;;;13.60;99.90;;;;;;4957789;28;20528;-70
2022/11/10 13:02:39;;;;;;;5.70;1.67;;;13.60;99.90;;;;;;4976753;28;20493;-70
2022/11/10 13:05:37;;;;;;;5.87;2.07;;;13.60;99.90;;;;;;4976567;28;20456;-70
2022/11/10 13:08:33;;;;;;;7.33;1.63;;;13.60;99.90;;;;;;4977837;28;20563;-70
2022/11/10 13:11:28;;;;;;;6.80;1.77;;;13.60;99.90;;;;;;4980323;28;20505;-70
2022/11/10 13:14:27;;;;;;;2.50;1.30;;;13.60;99.90;;;;;;4994967;28;20499;-70
2022/11/10 13:17:29;;;;;;;4.67;1.50;;;13.60;99.90;;;;;;4978476;28;20475;-70
2022/11/10 13:20:38;;;;;;;4.00;1.50;;;13.60;99.90;;;;;;4948691;28;20451;-70
2022/11/10 13:23:54;;;;;;;6.60;1.47;;;13.60;99.90;;;;;;4959327;28;20445;-70
2022/11/10 13:26:46;;;;;;;4.23;1.90;;;13.70;99.90;;;;;;4975259;28;21005;-70
2022/11/10 13:29:51;;;;;;;3.00;1.33;;;13.70;99.90;;;;;;4969734;28;20443;-70
2022/11/10 13:32:36;;;;;;;5.17;1.97;;;13.70;99.90;;;;;;4969448;28;20451;-70
2022/11/10 13:35:50;;;;;;;4.80;1.70;;;13.70;99.90;;;;;;4964199;28;20457;-70
2022/11/10 13:38:40;;;;;;;4.57;1.67;;;13.70;99.90;;;;;;4975788;28;20471;-70
2022/11/10 13:41:33;;;;;;;5.43;1.60;;;13.70;99.90;;;;;;4991167;28;20427;-70
2022/11/10 13:44:23;;;;;;;2.97;1.20;;;13.70;99.90;;;;;;4981725;28;20457;-70
2022/11/10 13:47:09;;;;;;;3.80;1.60;;;13.80;99.90;;;;;;4978254;28;20530;-70
2022/11/10 13:50:22;;;;;;;5.57;1.57;;;13.70;99.90;;;;;;4984550;28;20531;-70
2022/11/10 13:53:34;;;;;;;4.30;1.33;;;13.80;99.90;;;;;;4981206;28;20468;-70
2022/11/10 13:56:51;;;;;;;10.37;1.50;;;13.80;99.90;;;;;;4989090;28;20444;-70
2022/11/10 13:59:51;;;;;;;2.93;1.10;;;13.80;99.90;;;;;;4958547;28;20452;-70
2022/11/10 14:02:42;;;;;;;5.83;1.50;;;13.80;99.90;;;;;;4990753;28;20914;-70
2022/11/10 14:05:40;;;;;;;6.30;1.63;;;13.80;99.90;;;;;;4975574;28;20958;-70
2022/11/10 14:08:33;;;;;;;5.00;1.57;;;13.80;99.90;;;;;;4978036;28;20421;-70
2022/11/10 14:11:35;;;;;;;3.90;1.40;;;13.80;99.90;;;;;;4992660;28;20419;-70
2022/11/10 14:14:45;;;;;;;3.70;1.33;;;13.80;99.90;;;;;;4977335;28;20494;-70
2022/11/10 14:17:37;;;;;;;7.10;1.63;;;13.80;99.90;;;;;;4994368;28;20479;-70
2022/11/10 14:20:31;;;;;;;3.00;1.60;;;13.80;99.90;;;;;;4971800;28;20463;-70
2022/11/10 14:23:24;;;;;;;8.80;1.47;;;13.80;99.90;;;;;;4976974;28;20488;-70
2022/11/10 14:26:32;;;;;;;2.90;1.60;;;13.80;99.90;;;;;;4994501;28;20819;-70
2022/11/10 14:29:29;;;;;;;3.73;1.60;;;13.80;99.90;;;;;;4965478;28;20458;-70
2022/11/10 14:32:20;;;;;;;3.83;1.30;;;13.80;99.90;;;;;;4957169;28;20994;-70
2022/11/10 14:35:05;;;;;;;4.10;1.67;;;13.80;99.90;;;;;;4975995;28;20421;-70
2022/11/10 14:37:53;;;;;;;5.20;1.60;;;13.80;99.90;;;;;;4960511;28;20436;-70
2022/11/10 14:40:43;;;;;;;4.90;1.40;;;13.80;99.90;;;;;;4974973;28;20484;-70
2022/11/10 14:43:38;;;;;;;3.90;1.37;;;13.80;99.90;;;;;;4975269;28;20532;-70
2022/11/10 14:46:24;;;;;;;4.17;2.40;;;13.80;99.90;;;;;;4969707;28;20432;-70
2022/11/10 14:49:13;;;;;;;5.20;1.30;;;13.80;99.90;;;;;;4994042;28;20438;-70
2022/11/10 14:51:59;;;;;;;3.33;1.53;;;13.80;99.90;;;;;;4957756;28;20439;-70
2022/11/10 14:54:45;;;;;;;2.27;1.20;;;13.80;99.90;;;;;;4969467;28;20503;-70
2022/11/10 14:57:33;;;;;;;5.73;1.70;;;13.80;99.90;;;;;;4990108;28;20932;-70
2022/11/10 15:00:24;;;;;;;3.53;1.47;;;13.80;99.90;;;;;;4960741;28;20452;-70